createdAt,value
2023-01-12T00:01:42.853Z,58.56
2023-01-12T00:04:14.181Z,60.38
2023-01-12T00:06:43.609Z,59.75
2023-01-12T00:09:13.014Z,59.59
2023-01-12T00:11:42.246Z,59.98
2023-01-12T00:14:11.561Z,59.90
2023-01-12T00:16:42.005Z,58.06
2023-01-12T00:19:13.044Z,60.01
2023-01-12T00:21:56.636Z,60.06
2023-01-12T00:24:27.578Z,59.81
2023-01-12T00:26:57.752Z,59.62
2023-01-12T00:29:27.888Z,60.14
2023-01-12T00:31:59.388Z,60.29
2023-01-12T00:34:29.799Z,59.74
2023-01-12T00:37:01.283Z,60.50
2023-01-12T00:39:30.303Z,60.46
2023-01-12T00:42:16.961Z,59.52
2023-01-12T00:45:03.192Z,60.13
2023-01-12T00:47:34.413Z,60.08
2023-01-12T00:50:03.372Z,59.37
2023-01-12T00:52:32.244Z,59.93
2023-01-12T00:55:01.377Z,59.44
2023-01-12T00:57:30.222Z,59.21
2023-01-12T01:00:00.345Z,59.78
2023-01-12T01:02:29.944Z,59.56
2023-01-12T01:05:00.343Z,60.28
2023-01-12T01:07:29.039Z,58.09
2023-01-12T01:09:58.050Z,59.04
2023-01-12T01:12:27.128Z,59.48
2023-01-12T01:14:56.636Z,59.48
2023-01-12T01:17:25.443Z,59.28
2023-01-12T01:19:54.355Z,59.55
2023-01-12T01:22:24.374Z,60.37
2023-01-12T01:24:53.206Z,57.45
2023-01-12T01:27:21.937Z,57.95
2023-01-12T01:29:51.105Z,60.02
2023-01-12T01:32:19.681Z,59.98
2023-01-12T01:34:49.030Z,60.56
2023-01-12T01:37:18.486Z,59.56
2023-01-12T01:39:48.819Z,60.49
2023-01-12T01:42:28.384Z,59.78
2023-01-12T01:45:00.878Z,59.47
2023-01-12T01:47:36.274Z,59.08
2023-01-12T01:50:13.813Z,58.93
2023-01-12T01:52:46.412Z,58.62
2023-01-12T01:55:21.920Z,59.04
2023-01-12T01:57:53.641Z,59.12
2023-01-12T02:00:23.663Z,60.31
2023-01-12T02:02:53.477Z,57.66
2023-01-12T02:05:26.152Z,58.41
2023-01-12T02:07:56.263Z,59.43
2023-01-12T02:10:26.945Z,59.35
2023-01-12T02:13:27.785Z,58.93
2023-01-12T02:16:20.507Z,59.06
2023-01-12T02:18:58.068Z,60.86
2023-01-12T02:21:57.092Z,59.09
2023-01-12T02:24:58.178Z,58.96
2023-01-12T02:27:57.953Z,59.82
2023-01-12T02:31:02.943Z,60.14
2023-01-12T02:33:44.952Z,59.36
2023-01-12T02:36:19.337Z,59.16
2023-01-12T02:38:52.961Z,57.77
2023-01-12T02:41:41.816Z,58.24
2023-01-12T02:44:31.739Z,58.99
2023-01-12T02:47:04.289Z,58.73
2023-01-12T02:49:41.220Z,58.77
2023-01-12T02:52:15.739Z,58.70
2023-01-12T02:54:50.802Z,59.11
2023-01-12T02:57:24.462Z,58.11
2023-01-12T02:59:56.050Z,58.17
2023-01-12T03:02:27.818Z,58.52
2023-01-12T03:04:58.478Z,57.96
2023-01-12T03:07:43.847Z,59.33
2023-01-12T03:10:41.471Z,58.84
2023-01-12T03:13:13.444Z,58.53
2023-01-12T03:15:47.311Z,58.78
2023-01-12T03:18:19.873Z,58.23
2023-01-12T03:20:55.223Z,58.17
2023-01-12T03:23:30.948Z,58.65
2023-01-12T03:26:02.385Z,58.89
2023-01-12T03:28:35.814Z,59.42
2023-01-12T03:31:11.445Z,59.40
2023-01-12T03:33:43.094Z,58.42
2023-01-12T03:36:35.661Z,59.72
2023-01-12T03:39:15.038Z,58.74
2023-01-12T03:41:56.030Z,57.78
2023-01-12T03:44:34.020Z,58.72
2023-01-12T03:47:08.629Z,55.92
2023-01-12T03:49:42.783Z,57.42
2023-01-12T03:52:14.397Z,58.26
2023-01-12T03:54:45.262Z,57.12
2023-01-12T03:57:15.353Z,58.08
2023-01-12T03:59:44.329Z,57.86
2023-01-12T04:02:14.554Z,57.12
2023-01-12T04:04:44.253Z,57.19
2023-01-12T04:07:15.221Z,56.83
2023-01-12T04:09:43.874Z,56.41
2023-01-12T04:12:12.685Z,58.54
2023-01-12T04:14:46.871Z,57.12
2023-01-12T04:17:17.790Z,57.61
2023-01-12T04:19:46.413Z,57.58
2023-01-12T04:22:35.003Z,57.14
2023-01-12T04:25:04.033Z,57.80
2023-01-12T04:27:33.132Z,57.77
2023-01-12T04:30:01.860Z,56.97
2023-01-12T04:32:31.015Z,57.09
2023-01-12T04:34:59.893Z,57.55
2023-01-12T04:37:30.095Z,57.11
2023-01-12T04:39:58.820Z,58.32
2023-01-12T04:42:45.630Z,57.85
2023-01-12T04:45:14.257Z,58.34
2023-01-12T04:47:43.899Z,58.39
2023-01-12T04:50:12.556Z,56.99
2023-01-12T04:52:43.249Z,56.43
2023-01-12T04:55:12.510Z,57.21
2023-01-12T04:57:41.679Z,57.53
2023-01-12T05:00:11.788Z,57.55
2023-01-12T05:02:40.791Z,58.50
2023-01-12T05:05:09.833Z,58.36
2023-01-12T05:07:59.075Z,57.88
2023-01-12T05:10:28.139Z,58.76
2023-01-12T05:12:57.226Z,59.10
2023-01-12T05:15:26.187Z,58.48
2023-01-12T05:17:55.589Z,58.56
2023-01-12T05:20:24.497Z,58.76
2023-01-12T05:22:53.491Z,58.55
2023-01-12T05:25:22.665Z,56.15
2023-01-12T05:27:57.884Z,59.25
2023-01-12T05:30:29.383Z,60.91
2023-01-12T05:33:00.990Z,60.26
2023-01-12T05:35:29.910Z,61.13
2023-01-12T05:37:59.159Z,61.83
2023-01-12T05:40:28.059Z,62.52
2023-01-12T05:43:15.704Z,62.32
2023-01-12T05:45:44.544Z,61.99
2023-01-12T05:48:13.504Z,61.95
2023-01-12T05:50:42.094Z,61.24
2023-01-12T05:53:11.403Z,60.66
2023-01-12T05:55:40.257Z,60.62
2023-01-12T05:58:10.817Z,60.16
2023-01-12T06:00:39.626Z,61.02
2023-01-12T06:03:08.902Z,60.46
2023-01-12T06:05:37.466Z,59.96
2023-01-12T06:08:07.036Z,60.29
2023-01-12T06:10:37.089Z,59.21
2023-01-12T06:13:23.903Z,59.50
2023-01-12T06:15:54.151Z,58.93
2023-01-12T06:18:23.484Z,59.59
2023-01-12T06:20:52.397Z,58.29
2023-01-12T06:23:21.335Z,57.78
2023-01-12T06:26:09.101Z,60.38
2023-01-12T06:28:40.965Z,61.76
2023-01-12T06:31:12.969Z,61.74
2023-01-12T06:33:43.272Z,61.19
2023-01-12T06:36:12.993Z,60.63
2023-01-12T06:38:43.338Z,61.22
2023-01-12T06:41:34.534Z,60.84
2023-01-12T06:44:03.499Z,61.10
2023-01-12T06:46:33.689Z,59.90
2023-01-12T06:49:02.622Z,60.47
2023-01-12T06:51:31.346Z,60.35
2023-01-12T06:54:01.483Z,61.11
2023-01-12T06:56:30.182Z,60.88
2023-01-12T06:58:59.167Z,59.95
2023-01-12T07:01:27.853Z,59.62
2023-01-12T07:03:58.348Z,59.12
2023-01-12T07:06:27.585Z,58.53
2023-01-12T07:08:56.546Z,59.09
2023-01-12T07:11:25.768Z,59.25
2023-01-12T07:13:56.359Z,56.71
2023-01-12T07:16:25.345Z,57.01
2023-01-12T07:18:54.333Z,58.05
2023-01-12T07:21:24.707Z,59.49
2023-01-12T07:23:53.905Z,62.54
2023-01-12T07:26:22.539Z,63.99
2023-01-12T07:28:51.677Z,66.98
2023-01-12T07:31:20.480Z,67.37
2023-01-12T07:33:52.127Z,67.71
2023-01-12T07:36:21.314Z,68.62
2023-01-12T07:38:51.886Z,69.38
2023-01-12T07:41:38.055Z,69.30
2023-01-12T07:44:15.205Z,68.63
2023-01-12T07:46:44.439Z,68.05
2023-01-12T07:49:14.146Z,67.77
2023-01-12T07:51:42.780Z,67.93
2023-01-12T07:54:13.780Z,67.70
2023-01-12T07:56:44.312Z,67.81
2023-01-12T07:59:13.345Z,68.04
2023-01-12T08:01:42.380Z,68.05
2023-01-12T08:04:11.360Z,69.50
2023-01-12T08:06:39.993Z,69.30
2023-01-12T08:09:09.000Z,70.09
2023-01-12T08:11:40.135Z,69.56
2023-01-12T08:14:09.641Z,69.47
2023-01-12T08:16:42.178Z,70.67
2023-01-12T08:19:17.602Z,70.80
2023-01-12T08:21:50.948Z,69.70
2023-01-12T08:24:25.833Z,68.15
2023-01-12T08:26:59.953Z,67.49
2023-01-12T08:29:33.960Z,65.90
2023-01-12T08:32:05.189Z,64.42
2023-01-12T08:34:35.293Z,63.89
2023-01-12T08:37:09.626Z,62.52
2023-01-12T08:39:39.492Z,62.74
2023-01-12T08:42:09.677Z,62.47
2023-01-12T08:44:38.962Z,60.21
2023-01-12T08:47:17.234Z,57.79
2023-01-12T08:49:46.981Z,58.67
2023-01-12T08:52:16.916Z,59.55
2023-01-12T08:54:46.593Z,59.19
2023-01-12T08:57:19.351Z,58.25
2023-01-12T08:59:48.387Z,58.30
2023-01-12T09:02:17.560Z,58.68
2023-01-12T09:04:46.762Z,56.44
2023-01-12T09:07:17.185Z,58.05
2023-01-12T09:09:46.066Z,58.51
2023-01-12T09:12:16.728Z,57.36
2023-01-12T09:14:45.689Z,56.95
2023-01-12T09:17:14.402Z,57.32
2023-01-12T09:19:44.647Z,56.71
2023-01-12T09:22:13.420Z,55.89
2023-01-12T09:24:42.516Z,55.51
2023-01-12T09:27:12.220Z,56.18
2023-01-12T09:29:42.525Z,55.39
2023-01-12T09:32:11.113Z,54.63
2023-01-12T09:34:40.354Z,54.26
2023-01-12T09:37:08.944Z,54.88
2023-01-12T09:39:38.000Z,53.87
2023-01-12T09:42:24.854Z,53.40
2023-01-12T09:45:12.505Z,54.18
2023-01-12T09:48:14.340Z,54.13
2023-01-12T09:50:53.006Z,53.98
2023-01-12T09:53:26.641Z,53.53
2023-01-12T09:56:04.743Z,53.42
2023-01-12T09:58:55.385Z,54.03
2023-01-12T10:01:30.428Z,53.29
2023-01-12T10:04:02.697Z,53.73
2023-01-12T10:06:33.072Z,53.58
2023-01-12T10:09:03.225Z,52.70
2023-01-12T10:11:41.440Z,52.65
2023-01-12T10:14:32.253Z,52.29
2023-01-12T10:17:18.087Z,52.59
2023-01-12T10:19:55.014Z,52.51
2023-01-12T10:22:38.878Z,53.20
2023-01-12T10:25:17.329Z,53.32
2023-01-12T10:27:48.268Z,52.15
2023-01-12T10:30:19.724Z,51.54
2023-01-12T10:32:49.991Z,52.74
2023-01-12T10:35:20.932Z,52.00
2023-01-12T10:37:52.916Z,52.42
2023-01-12T10:40:28.936Z,52.51
2023-01-12T10:43:24.034Z,52.22
2023-01-12T10:46:10.333Z,50.28
2023-01-12T10:48:43.293Z,50.73
2023-01-12T10:51:22.867Z,51.59
2023-01-12T10:53:56.126Z,52.15
2023-01-12T10:56:30.042Z,51.78
2023-01-12T10:59:02.601Z,52.70
2023-01-12T11:01:45.603Z,52.60
2023-01-12T11:04:20.434Z,52.33
2023-01-12T11:06:58.632Z,54.31
2023-01-12T11:09:30.122Z,53.59
2023-01-12T11:12:00.115Z,53.59
2023-01-12T11:14:32.815Z,53.11
2023-01-12T11:17:21.713Z,52.02
2023-01-12T11:19:54.569Z,53.71
2023-01-12T11:22:28.953Z,52.09
2023-01-12T11:25:02.221Z,51.42
2023-01-12T11:27:37.032Z,51.94
2023-01-12T11:30:16.120Z,52.39
2023-01-12T11:32:50.454Z,51.84
2023-01-12T11:35:29.499Z,50.18
2023-01-12T11:38:02.265Z,53.23
2023-01-12T11:40:33.908Z,53.34
2023-01-12T11:43:34.276Z,52.01
2023-01-12T11:46:13.616Z,53.54
2023-01-12T11:48:51.674Z,51.17
2023-01-12T11:51:22.295Z,53.54
2023-01-12T11:53:51.134Z,53.23
2023-01-12T11:56:57.147Z,53.17
2023-01-12T11:59:34.593Z,53.73
2023-01-12T12:02:20.170Z,56.16
2023-01-12T12:05:00.935Z,56.17
2023-01-12T12:07:46.066Z,56.38
2023-01-12T12:10:23.950Z,56.83
2023-01-12T12:13:16.273Z,57.61
2023-01-12T12:15:53.786Z,57.56
2023-01-12T12:18:39.747Z,58.71
2023-01-12T12:21:22.632Z,58.18
2023-01-12T12:24:06.723Z,56.76
2023-01-12T12:26:38.493Z,55.75
2023-01-12T12:29:22.749Z,55.66
2023-01-12T12:32:04.985Z,55.86
2023-01-12T12:34:55.427Z,54.91
2023-01-12T12:37:36.210Z,54.99
2023-01-12T12:40:18.361Z,55.19
2023-01-12T12:43:14.448Z,53.37
2023-01-12T12:45:51.420Z,54.78
2023-01-12T12:48:25.735Z,53.47
2023-01-12T12:51:02.284Z,53.07
2023-01-12T12:53:35.553Z,54.24
2023-01-12T12:56:09.013Z,53.11
2023-01-12T12:58:43.778Z,56.33
2023-01-12T13:01:55.171Z,56.04
2023-01-12T13:05:05.507Z,56.73
2023-01-12T13:07:44.078Z,57.74
2023-01-12T13:10:25.437Z,56.20
2023-01-12T13:13:05.055Z,57.04
2023-01-12T13:15:37.472Z,56.24
2023-01-12T13:18:07.444Z,55.16
2023-01-12T13:20:55.746Z,54.76
2023-01-12T13:23:48.903Z,54.25
2023-01-12T13:26:42.689Z,56.64
2023-01-12T13:29:47.942Z,58.13
2023-01-12T13:32:58.775Z,57.58
2023-01-12T13:35:57.490Z,56.94
2023-01-12T13:38:39.380Z,57.41
2023-01-12T13:41:45.636Z,57.13
2023-01-12T13:44:21.503Z,58.44
2023-01-12T13:46:52.722Z,58.47
2023-01-12T13:49:34.106Z,57.45
2023-01-12T13:52:06.192Z,56.71
2023-01-12T13:54:36.109Z,56.77
2023-01-12T13:57:10.671Z,58.60
2023-01-12T13:59:40.201Z,59.20
2023-01-12T14:02:19.245Z,58.37
2023-01-12T14:05:03.322Z,57.83
2023-01-12T14:07:44.970Z,58.42
2023-01-12T14:10:29.424Z,57.60
2023-01-12T14:13:24.557Z,57.03
2023-01-12T14:16:19.323Z,55.94
2023-01-12T14:18:51.229Z,55.97
2023-01-12T14:21:26.019Z,55.83
2023-01-12T14:24:09.547Z,54.97
2023-01-12T14:26:38.206Z,54.03
2023-01-12T14:29:09.646Z,54.73
2023-01-12T14:31:40.437Z,54.43
2023-01-12T14:34:24.646Z,54.01
2023-01-12T14:36:56.308Z,54.84
2023-01-12T14:39:29.032Z,54.76
2023-01-12T14:42:15.939Z,53.86
2023-01-12T14:45:09.726Z,53.50
2023-01-12T14:47:38.956Z,53.69
2023-01-12T14:50:18.792Z,53.19
2023-01-12T14:52:53.368Z,52.28
2023-01-12T14:55:29.075Z,52.74
2023-01-12T14:58:00.743Z,53.25
2023-01-12T15:00:32.555Z,53.10
2023-01-12T15:03:04.914Z,52.86
2023-01-12T15:05:36.830Z,52.77
2023-01-12T15:08:23.590Z,52.85
2023-01-12T15:10:58.619Z,52.70
2023-01-12T15:13:29.798Z,52.32
2023-01-12T15:16:16.099Z,52.45
2023-01-12T15:19:02.158Z,52.83
2023-01-12T15:21:50.593Z,51.91
2023-01-12T15:24:41.554Z,53.83
2023-01-12T15:27:12.328Z,53.61
2023-01-12T15:29:40.876Z,53.66
2023-01-12T15:32:15.375Z,53.43
2023-01-12T15:34:43.970Z,53.90
2023-01-12T15:37:16.024Z,53.81
2023-01-12T15:39:46.288Z,54.44
2023-01-12T15:42:21.436Z,54.38
2023-01-12T15:44:51.995Z,53.84
2023-01-12T15:47:22.972Z,54.16
2023-01-12T15:49:53.463Z,54.86
2023-01-12T15:52:25.035Z,54.27
2023-01-12T15:54:55.076Z,54.21
2023-01-12T15:57:24.406Z,54.66
2023-01-12T15:59:53.047Z,54.50
2023-01-12T16:02:27.756Z,53.58
2023-01-12T16:04:56.400Z,53.67
2023-01-12T16:07:25.771Z,54.16
2023-01-12T16:09:55.855Z,54.16
2023-01-12T16:12:26.140Z,53.83
2023-01-12T16:14:56.623Z,53.62
2023-01-12T16:17:26.131Z,54.03
2023-01-12T16:19:54.713Z,53.58
2023-01-12T16:22:28.025Z,54.02
2023-01-12T16:24:58.099Z,53.41
2023-01-12T16:27:28.167Z,53.50
2023-01-12T16:29:56.903Z,54.09
2023-01-12T16:32:26.676Z,53.52
2023-01-12T16:34:55.447Z,53.39
2023-01-12T16:37:27.562Z,53.01
2023-01-12T16:39:57.739Z,53.10
2023-01-12T16:42:30.233Z,53.17
2023-01-12T16:44:59.573Z,54.03
2023-01-12T16:47:28.596Z,53.32
2023-01-12T16:49:57.285Z,52.78
2023-01-12T16:52:26.315Z,52.67
2023-01-12T16:54:54.895Z,53.46
2023-01-12T16:57:25.572Z,53.98
2023-01-12T16:59:54.243Z,53.46
2023-01-12T17:02:23.439Z,52.90
2023-01-12T17:04:53.109Z,53.20
2023-01-12T17:07:22.412Z,53.06
2023-01-12T17:09:51.295Z,54.10
2023-01-12T17:12:20.384Z,53.81
2023-01-12T17:14:50.564Z,54.10
2023-01-12T17:17:20.875Z,54.17
2023-01-12T17:19:49.880Z,54.13
2023-01-12T17:22:18.939Z,53.77
2023-01-12T17:24:47.890Z,53.54
2023-01-12T17:27:16.987Z,53.14
2023-01-12T17:29:45.605Z,53.51
2023-01-12T17:32:16.088Z,53.81
2023-01-12T17:34:47.970Z,54.07
2023-01-12T17:37:17.305Z,54.19
2023-01-12T17:39:47.380Z,54.38
2023-01-12T17:42:35.518Z,54.00
2023-01-12T17:45:05.046Z,53.77
2023-01-12T17:47:35.407Z,54.35
2023-01-12T17:50:04.110Z,54.35
2023-01-12T17:52:33.087Z,54.69
2023-01-12T17:55:01.722Z,53.94
2023-01-12T17:57:31.635Z,54.09
2023-01-12T18:00:00.305Z,54.44
2023-01-12T18:02:29.306Z,54.30
2023-01-12T18:04:59.417Z,54.40
2023-01-12T18:07:29.004Z,54.51
2023-01-12T18:09:57.661Z,54.11
2023-01-12T18:12:27.523Z,54.59
2023-01-12T18:14:56.748Z,54.37
2023-01-12T18:17:25.715Z,54.67
2023-01-12T18:19:54.419Z,54.32
2023-01-12T18:22:24.716Z,54.86
2023-01-12T18:24:53.278Z,54.94
2023-01-12T18:27:22.311Z,55.14
2023-01-12T18:29:50.846Z,55.55
2023-01-12T18:32:19.682Z,55.17
2023-01-12T18:34:48.272Z,55.59
2023-01-12T18:37:17.953Z,55.47
2023-01-12T18:39:50.111Z,55.28
2023-01-12T18:42:36.454Z,54.66
2023-01-12T18:45:05.546Z,55.47
2023-01-12T18:47:52.096Z,55.49
2023-01-12T18:50:38.506Z,54.95
2023-01-12T18:53:29.978Z,55.52
2023-01-12T18:56:03.352Z,56.02
2023-01-12T18:58:33.540Z,55.45
2023-01-12T19:01:04.886Z,55.52
2023-01-12T19:03:36.724Z,55.72
2023-01-12T19:06:22.223Z,55.36
2023-01-12T19:09:10.622Z,55.15
2023-01-12T19:11:41.295Z,55.40
2023-01-12T19:14:28.552Z,55.37
2023-01-12T19:17:14.494Z,55.03
2023-01-12T19:19:43.341Z,55.35
2023-01-12T19:22:29.552Z,55.79
2023-01-12T19:25:15.593Z,55.75
2023-01-12T19:28:03.871Z,55.61
2023-01-12T19:30:33.343Z,55.69
2023-01-12T19:33:03.785Z,55.22
2023-01-12T19:35:32.664Z,55.22
2023-01-12T19:38:01.473Z,55.29
2023-01-12T19:40:34.887Z,55.45
2023-01-12T19:43:14.580Z,55.11
2023-01-12T19:45:44.903Z,55.69
2023-01-12T19:48:15.698Z,56.23
2023-01-12T19:50:45.322Z,56.56
2023-01-12T19:53:15.735Z,56.50
2023-01-12T19:55:44.630Z,56.15
2023-01-12T19:58:15.304Z,56.22
2023-01-12T20:00:46.375Z,56.58
2023-01-12T20:03:16.742Z,56.61
2023-01-12T20:05:47.621Z,56.13
2023-01-12T20:08:16.590Z,55.72
2023-01-12T20:10:45.769Z,56.19
2023-01-12T20:13:15.728Z,56.15
2023-01-12T20:15:44.915Z,55.72
2023-01-12T20:18:13.901Z,55.53
2023-01-12T20:20:43.299Z,55.60
2023-01-12T20:23:12.898Z,55.63
2023-01-12T20:25:43.186Z,55.63
2023-01-12T20:28:12.496Z,54.91
2023-01-12T20:30:44.128Z,55.15
2023-01-12T20:33:13.345Z,55.39
2023-01-12T20:35:46.390Z,55.63
2023-01-12T20:38:16.896Z,55.60
2023-01-12T20:40:46.959Z,55.46
2023-01-12T20:43:15.690Z,55.69
2023-01-12T20:45:46.344Z,55.09
2023-01-12T20:48:15.591Z,55.24
2023-01-12T20:50:45.084Z,55.71
2023-01-12T20:53:14.829Z,55.38
2023-01-12T20:55:45.130Z,55.45
2023-01-12T20:58:14.228Z,55.29
2023-01-12T21:00:45.372Z,55.21
2023-01-12T21:03:14.460Z,55.26
2023-01-12T21:05:44.538Z,54.86
2023-01-12T21:08:14.366Z,55.29
2023-01-12T21:10:50.502Z,55.14
2023-01-12T21:13:20.098Z,54.82
2023-01-12T21:15:58.591Z,55.00
2023-01-12T21:18:27.601Z,54.98
2023-01-12T21:20:57.284Z,54.93
2023-01-12T21:23:26.780Z,54.97
2023-01-12T21:25:55.825Z,54.95
2023-01-12T21:28:25.138Z,55.44
2023-01-12T21:30:55.714Z,55.04
2023-01-12T21:33:24.283Z,54.57
2023-01-12T21:35:56.842Z,55.28
2023-01-12T21:38:26.745Z,55.42
2023-01-12T21:40:56.678Z,55.59
2023-01-12T21:43:24.438Z,55.08
2023-01-12T21:45:57.495Z,55.09
2023-01-12T21:48:26.304Z,54.96
2023-01-12T21:50:55.370Z,54.46
2023-01-12T21:53:25.036Z,54.51
2023-01-12T21:55:55.462Z,54.74
2023-01-12T21:58:24.253Z,54.40
2023-01-12T22:00:54.217Z,54.53
2023-01-12T22:03:26.610Z,54.50
2023-01-12T22:05:56.337Z,55.18
2023-01-12T22:08:24.874Z,54.54
2023-01-12T22:10:53.871Z,53.94
2023-01-12T22:13:22.566Z,54.30
2023-01-12T22:15:52.285Z,54.39
2023-01-12T22:18:21.190Z,54.29
2023-01-12T22:20:51.574Z,54.20
2023-01-12T22:23:20.218Z,53.24
2023-01-12T22:25:49.067Z,53.53
2023-01-12T22:28:17.653Z,53.24
2023-01-12T22:30:46.624Z,52.88
2023-01-12T22:33:15.944Z,52.96
2023-01-12T22:35:44.942Z,53.07
2023-01-12T22:38:15.013Z,53.04
2023-01-12T22:40:43.824Z,52.93
2023-01-12T22:43:27.487Z,52.12
2023-01-12T22:45:58.048Z,52.93
2023-01-12T22:48:28.379Z,53.10
2023-01-12T22:51:01.927Z,52.30
2023-01-12T22:53:32.169Z,52.44
2023-01-12T22:56:01.841Z,52.51
2023-01-12T22:58:31.041Z,52.50
2023-01-12T23:01:04.422Z,52.22
2023-01-12T23:03:33.417Z,52.88
2023-01-12T23:06:03.142Z,52.63
2023-01-12T23:08:33.513Z,51.99
2023-01-12T23:11:07.687Z,52.66
2023-01-12T23:13:36.781Z,51.96
2023-01-12T23:16:07.902Z,52.22
2023-01-12T23:18:39.952Z,52.18
2023-01-12T23:21:14.270Z,52.20
2023-01-12T23:23:46.859Z,50.92
2023-01-12T23:26:17.984Z,51.22
2023-01-12T23:28:48.674Z,51.74
2023-01-12T23:31:19.853Z,51.20
2023-01-12T23:33:48.992Z,51.24
2023-01-12T23:36:20.035Z,51.44
2023-01-12T23:38:53.887Z,51.91
2023-01-12T23:41:25.472Z,50.77
2023-01-12T23:43:56.233Z,51.37
2023-01-12T23:46:25.291Z,50.54
2023-01-12T23:48:55.909Z,50.52
2023-01-12T23:51:26.116Z,51.16
2023-01-12T23:53:57.461Z,51.44
2023-01-12T23:56:28.130Z,51.67
2023-01-12T23:58:57.108Z,50.41
